sensor_id;sensor_type;location;lat;lon;timestamp;P1;durP1;ratioP1;P2;durP2;ratioP2
12308;SDS011;6217;48.150;17.142;2023-02-14T00:03:40;8.23;;;5.97;;
12308;SDS011;6217;48.150;17.142;2023-02-14T00:07:46;8.25;;;7.03;;
12308;SDS011;6217;48.150;17.142;2023-02-14T00:11:52;10.00;;;6.55;;
12308;SDS011;6217;48.150;17.142;2023-02-14T00:15:58;11.23;;;7.25;;
12308;SDS011;6217;48.150;17.142;2023-02-14T00:20:04;8.77;;;7.20;;
12308;SDS011;6217;48.150;17.142;2023-02-14T00:24:16;9.30;;;7.88;;
12308;SDS011;6217;48.150;17.142;2023-02-14T00:28:28;10.20;;;5.97;;
12308;SDS011;6217;48.150;17.142;2023-02-14T00:32:36;9.10;;;6.45;;
12308;SDS011;6217;48.150;17.142;2023-02-14T00:36:45;13.35;;;6.90;;
12308;SDS011;6217;48.150;17.142;2023-02-14T00:40:54;10.93;;;7.55;;
12308;SDS011;6217;48.150;17.142;2023-02-14T00:45:02;8.65;;;6.53;;
12308;SDS011;6217;48.150;17.142;2023-02-14T00:49:08;8.88;;;6.30;;
12308;SDS011;6217;48.150;17.142;2023-02-14T00:53:16;6.82;;;5.30;;
12308;SDS011;6217;48.150;17.142;2023-02-14T00:57:22;10.27;;;6.20;;
12308;SDS011;6217;48.150;17.142;2023-02-14T01:01:28;9.38;;;5.85;;
12308;SDS011;6217;48.150;17.142;2023-02-14T01:05:34;8.85;;;5.13;;
12308;SDS011;6217;48.150;17.142;2023-02-14T01:09:42;7.53;;;4.93;;
12308;SDS011;6217;48.150;17.142;2023-02-14T01:13:48;7.22;;;4.88;;
12308;SDS011;6217;48.150;17.142;2023-02-14T01:17:56;10.77;;;5.07;;
12308;SDS011;6217;48.150;17.142;2023-02-14T01:22:03;8.18;;;4.93;;
12308;SDS011;6217;48.150;17.142;2023-02-14T01:26:09;7.40;;;4.65;;
12308;SDS011;6217;48.150;17.142;2023-02-14T01:30:16;6.60;;;4.32;;
12308;SDS011;6217;48.150;17.142;2023-02-14T01:34:22;7.10;;;4.60;;
12308;SDS011;6217;48.150;17.142;2023-02-14T01:38:28;6.47;;;4.82;;
12308;SDS011;6217;48.150;17.142;2023-02-14T01:42:34;6.10;;;4.10;;
12308;SDS011;6217;48.150;17.142;2023-02-14T01:46:42;8.05;;;4.60;;
12308;SDS011;6217;48.150;17.142;2023-02-14T01:50:49;6.22;;;4.40;;
12308;SDS011;6217;48.150;17.142;2023-02-14T01:54:59;5.97;;;4.05;;
12308;SDS011;6217;48.150;17.142;2023-02-14T01:59:11;4.97;;;3.90;;
12308;SDS011;6217;48.150;17.142;2023-02-14T02:03:26;7.88;;;4.72;;
12308;SDS011;6217;48.150;17.142;2023-02-14T02:07:51;5.40;;;3.58;;
12308;SDS011;6217;48.150;17.142;2023-02-14T02:12:02;5.68;;;4.10;;
12308;SDS011;6217;48.150;17.142;2023-02-14T02:21:18;5.35;;;3.63;;
12308;SDS011;6217;48.150;17.142;2023-02-14T02:25:47;5.75;;;4.03;;
12308;SDS011;6217;48.150;17.142;2023-02-14T02:43:42;6.30;;;3.83;;
12308;SDS011;6217;48.150;17.142;2023-02-14T02:48:08;4.63;;;3.63;;
12308;SDS011;6217;48.150;17.142;2023-02-14T02:52:27;6.78;;;4.57;;
12308;SDS011;6217;48.150;17.142;2023-02-14T02:57:04;5.75;;;3.85;;
12308;SDS011;6217;48.150;17.142;2023-02-14T03:01:22;9.18;;;4.25;;
12308;SDS011;6217;48.150;17.142;2023-02-14T03:05:35;6.97;;;4.93;;
12308;SDS011;6217;48.150;17.142;2023-02-14T03:13:52;6.25;;;4.32;;
12308;SDS011;6217;48.150;17.142;2023-02-14T03:18:20;6.30;;;4.03;;
12308;SDS011;6217;48.150;17.142;2023-02-14T03:23:20;7.68;;;4.30;;
12308;SDS011;6217;48.150;17.142;2023-02-14T03:28:16;5.50;;;3.78;;
12308;SDS011;6217;48.150;17.142;2023-02-14T03:32:38;6.47;;;3.70;;
12308;SDS011;6217;48.150;17.142;2023-02-14T03:36:54;6.85;;;4.38;;
12308;SDS011;6217;48.150;17.142;2023-02-14T03:41:11;7.68;;;4.85;;
12308;SDS011;6217;48.150;17.142;2023-02-14T03:45:31;13.30;;;4.22;;
12308;SDS011;6217;48.150;17.142;2023-02-14T03:49:52;6.38;;;3.85;;
12308;SDS011;6217;48.150;17.142;2023-02-14T03:54:03;8.55;;;4.85;;
12308;SDS011;6217;48.150;17.142;2023-02-14T04:02:52;7.18;;;4.45;;
12308;SDS011;6217;48.150;17.142;2023-02-14T04:07:10;6.03;;;4.68;;
12308;SDS011;6217;48.150;17.142;2023-02-14T04:11:19;6.05;;;3.85;;
12308;SDS011;6217;48.150;17.142;2023-02-14T04:15:25;6.00;;;4.35;;
12308;SDS011;6217;48.150;17.142;2023-02-14T04:19:31;6.78;;;4.97;;
12308;SDS011;6217;48.150;17.142;2023-02-14T04:23:37;5.43;;;4.47;;
12308;SDS011;6217;48.150;17.142;2023-02-14T04:27:43;7.82;;;5.07;;
12308;SDS011;6217;48.150;17.142;2023-02-14T04:31:49;6.93;;;4.43;;
12308;SDS011;6217;48.150;17.142;2023-02-14T04:35:55;7.57;;;5.07;;
12308;SDS011;6217;48.150;17.142;2023-02-14T04:40:01;7.03;;;3.83;;
12308;SDS011;6217;48.150;17.142;2023-02-14T04:44:07;5.43;;;4.03;;
12308;SDS011;6217;48.150;17.142;2023-02-14T04:48:13;7.20;;;4.93;;
12308;SDS011;6217;48.150;17.142;2023-02-14T04:52:19;5.72;;;3.88;;
12308;SDS011;6217;48.150;17.142;2023-02-14T04:56:25;5.85;;;4.50;;
12308;SDS011;6217;48.150;17.142;2023-02-14T05:00:31;5.90;;;4.18;;
12308;SDS011;6217;48.150;17.142;2023-02-14T05:04:37;9.23;;;5.35;;
12308;SDS011;6217;48.150;17.142;2023-02-14T05:08:43;5.93;;;4.10;;
12308;SDS011;6217;48.150;17.142;2023-02-14T05:12:49;9.90;;;5.88;;
12308;SDS011;6217;48.150;17.142;2023-02-14T05:16:54;7.70;;;5.07;;
12308;SDS011;6217;48.150;17.142;2023-02-14T05:21:00;10.40;;;4.70;;
12308;SDS011;6217;48.150;17.142;2023-02-14T05:25:06;7.63;;;4.63;;
12308;SDS011;6217;48.150;17.142;2023-02-14T05:29:12;8.20;;;4.78;;
12308;SDS011;6217;48.150;17.142;2023-02-14T05:33:18;7.28;;;4.65;;
12308;SDS011;6217;48.150;17.142;2023-02-14T05:37:24;8.63;;;5.05;;
12308;SDS011;6217;48.150;17.142;2023-02-14T05:41:30;7.28;;;5.05;;
12308;SDS011;6217;48.150;17.142;2023-02-14T05:45:37;6.40;;;4.75;;
12308;SDS011;6217;48.150;17.142;2023-02-14T05:49:42;8.02;;;5.30;;
12308;SDS011;6217;48.150;17.142;2023-02-14T05:53:48;7.95;;;6.07;;
12308;SDS011;6217;48.150;17.142;2023-02-14T05:57:54;8.65;;;5.35;;
12308;SDS011;6217;48.150;17.142;2023-02-14T06:02:00;9.43;;;6.47;;
12308;SDS011;6217;48.150;17.142;2023-02-14T06:06:06;10.13;;;6.57;;
12308;SDS011;6217;48.150;17.142;2023-02-14T06:10:12;10.25;;;7.35;;
12308;SDS011;6217;48.150;17.142;2023-02-14T06:14:18;9.02;;;7.00;;
12308;SDS011;6217;48.150;17.142;2023-02-14T06:18:24;10.32;;;7.13;;
12308;SDS011;6217;48.150;17.142;2023-02-14T06:22:32;10.88;;;8.25;;
12308;SDS011;6217;48.150;17.142;2023-02-14T06:26:38;13.88;;;7.50;;
12308;SDS011;6217;48.150;17.142;2023-02-14T06:30:45;10.68;;;8.27;;
12308;SDS011;6217;48.150;17.142;2023-02-14T06:34:51;10.70;;;7.00;;
12308;SDS011;6217;48.150;17.142;2023-02-14T06:38:57;11.50;;;7.15;;
12308;SDS011;6217;48.150;17.142;2023-02-14T06:43:03;11.13;;;7.22;;
12308;SDS011;6217;48.150;17.142;2023-02-14T06:47:09;9.85;;;7.60;;
12308;SDS011;6217;48.150;17.142;2023-02-14T06:51:15;13.63;;;8.35;;
12308;SDS011;6217;48.150;17.142;2023-02-14T06:55:21;12.82;;;7.25;;
12308;SDS011;6217;48.150;17.142;2023-02-14T06:59:27;10.27;;;8.43;;
12308;SDS011;6217;48.150;17.142;2023-02-14T07:03:33;11.55;;;7.93;;
12308;SDS011;6217;48.150;17.142;2023-02-14T07:07:39;15.20;;;8.57;;
12308;SDS011;6217;48.150;17.142;2023-02-14T07:11:44;12.82;;;8.30;;
12308;SDS011;6217;48.150;17.142;2023-02-14T07:15:50;10.93;;;8.02;;
12308;SDS011;6217;48.150;17.142;2023-02-14T07:19:56;13.15;;;8.25;;
12308;SDS011;6217;48.150;17.142;2023-02-14T07:24:02;18.27;;;10.50;;
12308;SDS011;6217;48.150;17.142;2023-02-14T07:28:08;18.02;;;10.10;;
12308;SDS011;6217;48.150;17.142;2023-02-14T07:32:14;16.00;;;10.07;;
12308;SDS011;6217;48.150;17.142;2023-02-14T07:36:20;13.43;;;8.07;;
12308;SDS011;6217;48.150;17.142;2023-02-14T07:40:26;16.70;;;10.73;;
12308;SDS011;6217;48.150;17.142;2023-02-14T07:44:33;17.27;;;10.27;;
12308;SDS011;6217;48.150;17.142;2023-02-14T07:48:39;17.33;;;10.68;;
12308;SDS011;6217;48.150;17.142;2023-02-14T07:52:45;16.88;;;9.68;;
12308;SDS011;6217;48.150;17.142;2023-02-14T07:56:51;15.90;;;9.98;;
12308;SDS011;6217;48.150;17.142;2023-02-14T08:00:57;19.98;;;12.70;;
12308;SDS011;6217;48.150;17.142;2023-02-14T08:05:03;15.70;;;10.50;;
12308;SDS011;6217;48.150;17.142;2023-02-14T08:09:10;16.17;;;10.75;;
12308;SDS011;6217;48.150;17.142;2023-02-14T08:13:16;15.23;;;10.63;;
12308;SDS011;6217;48.150;17.142;2023-02-14T08:17:21;16.58;;;11.32;;
12308;SDS011;6217;48.150;17.142;2023-02-14T08:21:27;19.00;;;11.25;;
12308;SDS011;6217;48.150;17.142;2023-02-14T08:25:34;18.13;;;11.40;;
12308;SDS011;6217;48.150;17.142;2023-02-14T08:29:40;18.10;;;11.40;;
12308;SDS011;6217;48.150;17.142;2023-02-14T08:33:46;15.57;;;12.02;;
12308;SDS011;6217;48.150;17.142;2023-02-14T08:37:52;19.17;;;9.93;;
12308;SDS011;6217;48.150;17.142;2023-02-14T08:41:58;16.92;;;10.70;;
12308;SDS011;6217;48.150;17.142;2023-02-14T08:46:04;16.35;;;10.63;;
12308;SDS011;6217;48.150;17.142;2023-02-14T08:50:11;18.70;;;10.95;;
12308;SDS011;6217;48.150;17.142;2023-02-14T08:54:20;16.73;;;10.93;;
12308;SDS011;6217;48.150;17.142;2023-02-14T08:58:26;16.73;;;10.70;;
12308;SDS011;6217;48.150;17.142;2023-02-14T09:02:32;17.95;;;10.88;;
12308;SDS011;6217;48.150;17.142;2023-02-14T09:06:38;16.42;;;10.50;;
12308;SDS011;6217;48.150;17.142;2023-02-14T09:10:44;18.95;;;10.77;;
12308;SDS011;6217;48.150;17.142;2023-02-14T09:14:50;17.27;;;12.10;;
12308;SDS011;6217;48.150;17.142;2023-02-14T09:18:56;17.25;;;10.95;;
12308;SDS011;6217;48.150;17.142;2023-02-14T09:23:02;14.63;;;10.18;;
12308;SDS011;6217;48.150;17.142;2023-02-14T09:27:08;15.15;;;9.80;;
12308;SDS011;6217;48.150;17.142;2023-02-14T09:31:15;13.35;;;8.82;;
12308;SDS011;6217;48.150;17.142;2023-02-14T09:35:23;14.70;;;10.38;;
12308;SDS011;6217;48.150;17.142;2023-02-14T09:39:48;17.23;;;10.82;;
12308;SDS011;6217;48.150;17.142;2023-02-14T09:52:48;13.70;;;10.60;;
12308;SDS011;6217;48.150;17.142;2023-02-14T09:57:06;13.52;;;9.85;;
12308;SDS011;6217;48.150;17.142;2023-02-14T10:01:27;13.00;;;9.63;;
12308;SDS011;6217;48.150;17.142;2023-02-14T10:05:46;12.82;;;9.15;;
12308;SDS011;6217;48.150;17.142;2023-02-14T10:14:26;15.93;;;10.80;;
12308;SDS011;6217;48.150;17.142;2023-02-14T10:18:42;15.15;;;10.93;;
12308;SDS011;6217;48.150;17.142;2023-02-14T10:23:01;16.23;;;9.20;;
12308;SDS011;6217;48.150;17.142;2023-02-14T10:27:28;14.55;;;9.68;;
12308;SDS011;6217;48.150;17.142;2023-02-14T10:31:45;14.13;;;9.57;;
12308;SDS011;6217;48.150;17.142;2023-02-14T10:36:04;16.80;;;10.77;;
12308;SDS011;6217;48.150;17.142;2023-02-14T10:40:27;15.10;;;9.77;;
12308;SDS011;6217;48.150;17.142;2023-02-14T10:54:19;13.68;;;8.55;;
12308;SDS011;6217;48.150;17.142;2023-02-14T10:58:28;12.10;;;8.85;;
12308;SDS011;6217;48.150;17.142;2023-02-14T11:02:41;14.73;;;10.02;;
12308;SDS011;6217;48.150;17.142;2023-02-14T11:06:50;17.58;;;9.48;;
12308;SDS011;6217;48.150;17.142;2023-02-14T11:15:43;15.93;;;9.50;;
12308;SDS011;6217;48.150;17.142;2023-02-14T11:20:02;18.27;;;11.70;;
12308;SDS011;6217;48.150;17.142;2023-02-14T11:28:53;16.27;;;9.82;;
12308;SDS011;6217;48.150;17.142;2023-02-14T11:33:04;13.97;;;10.90;;
12308;SDS011;6217;48.150;17.142;2023-02-14T11:41:26;14.82;;;10.23;;
12308;SDS011;6217;48.150;17.142;2023-02-14T11:46:04;17.10;;;10.77;;
12308;SDS011;6217;48.150;17.142;2023-02-14T11:50:25;21.65;;;11.38;;
12308;SDS011;6217;48.150;17.142;2023-02-14T11:54:34;20.05;;;13.10;;
12308;SDS011;6217;48.150;17.142;2023-02-14T12:03:02;18.48;;;12.63;;
12308;SDS011;6217;48.150;17.142;2023-02-14T12:07:17;18.77;;;13.38;;
12308;SDS011;6217;48.150;17.142;2023-02-14T12:11:40;22.15;;;13.30;;
12308;SDS011;6217;48.150;17.142;2023-02-14T12:15:59;14.88;;;11.77;;
12308;SDS011;6217;48.150;17.142;2023-02-14T12:20:08;19.75;;;11.73;;
12308;SDS011;6217;48.150;17.142;2023-02-14T12:29:23;18.25;;;13.50;;
12308;SDS011;6217;48.150;17.142;2023-02-14T12:33:35;19.73;;;12.55;;
12308;SDS011;6217;48.150;17.142;2023-02-14T13:10:03;14.40;;;8.93;;
12308;SDS011;6217;48.150;17.142;2023-02-14T13:18:52;12.40;;;9.20;;
12308;SDS011;6217;48.150;17.142;2023-02-14T13:23:48;12.15;;;9.25;;
12308;SDS011;6217;48.150;17.142;2023-02-14T13:28:04;14.55;;;8.15;;
12308;SDS011;6217;48.150;17.142;2023-02-14T13:32:17;12.73;;;8.27;;
12308;SDS011;6217;48.150;17.142;2023-02-14T13:36:27;11.32;;;8.30;;
12308;SDS011;6217;48.150;17.142;2023-02-14T13:40:34;10.13;;;7.63;;
12308;SDS011;6217;48.150;17.142;2023-02-14T13:44:41;10.00;;;6.25;;
12308;SDS011;6217;48.150;17.142;2023-02-14T13:48:55;12.70;;;7.80;;
12308;SDS011;6217;48.150;17.142;2023-02-14T13:53:10;17.45;;;8.23;;
12308;SDS011;6217;48.150;17.142;2023-02-14T14:01:36;12.07;;;7.72;;
12308;SDS011;6217;48.150;17.142;2023-02-14T14:06:05;9.38;;;6.57;;
12308;SDS011;6217;48.150;17.142;2023-02-14T14:10:40;11.13;;;7.43;;
12308;SDS011;6217;48.150;17.142;2023-02-14T14:23:30;12.93;;;8.75;;
12308;SDS011;6217;48.150;17.142;2023-02-14T14:27:41;17.42;;;9.52;;
12308;SDS011;6217;48.150;17.142;2023-02-14T14:31:50;11.40;;;7.50;;
12308;SDS011;6217;48.150;17.142;2023-02-14T14:36:00;12.13;;;8.10;;
12308;SDS011;6217;48.150;17.142;2023-02-14T14:40:25;12.10;;;8.30;;
12308;SDS011;6217;48.150;17.142;2023-02-14T14:44:35;14.57;;;8.10;;
12308;SDS011;6217;48.150;17.142;2023-02-14T14:48:57;12.68;;;8.48;;
12308;SDS011;6217;48.150;17.142;2023-02-14T14:53:04;13.18;;;7.85;;
12308;SDS011;6217;48.150;17.142;2023-02-14T14:57:16;20.17;;;8.13;;
12308;SDS011;6217;48.150;17.142;2023-02-14T15:01:27;15.27;;;9.40;;
12308;SDS011;6217;48.150;17.142;2023-02-14T15:05:42;12.27;;;8.13;;
12308;SDS011;6217;48.150;17.142;2023-02-14T15:09:51;16.95;;;9.20;;
12308;SDS011;6217;48.150;17.142;2023-02-14T15:13:57;12.10;;;9.15;;
12308;SDS011;6217;48.150;17.142;2023-02-14T15:18:04;13.50;;;8.45;;
12308;SDS011;6217;48.150;17.142;2023-02-14T15:26:35;14.90;;;8.90;;
12308;SDS011;6217;48.150;17.142;2023-02-14T15:30:41;11.48;;;8.55;;
12308;SDS011;6217;48.150;17.142;2023-02-14T15:34:49;15.27;;;9.38;;
12308;SDS011;6217;48.150;17.142;2023-02-14T15:38:55;15.13;;;8.93;;
12308;SDS011;6217;48.150;17.142;2023-02-14T15:47:29;11.10;;;8.00;;
12308;SDS011;6217;48.150;17.142;2023-02-14T15:51:35;13.13;;;8.80;;
12308;SDS011;6217;48.150;17.142;2023-02-14T15:55:42;15.55;;;8.80;;
12308;SDS011;6217;48.150;17.142;2023-02-14T15:59:50;15.52;;;9.82;;
12308;SDS011;6217;48.150;17.142;2023-02-14T16:03:57;14.57;;;9.77;;
12308;SDS011;6217;48.150;17.142;2023-02-14T16:12:38;18.05;;;9.50;;
12308;SDS011;6217;48.150;17.142;2023-02-14T16:17:32;17.73;;;10.07;;
12308;SDS011;6217;48.150;17.142;2023-02-14T16:21:26;14.88;;;9.25;;
12308;SDS011;6217;48.150;17.142;2023-02-14T16:25:37;13.80;;;9.10;;
12308;SDS011;6217;48.150;17.142;2023-02-14T16:29:45;14.70;;;10.30;;
12308;SDS011;6217;48.150;17.142;2023-02-14T16:33:51;16.45;;;9.95;;
12308;SDS011;6217;48.150;17.142;2023-02-14T16:37:57;17.17;;;9.48;;
12308;SDS011;6217;48.150;17.142;2023-02-14T16:42:03;23.13;;;9.93;;
12308;SDS011;6217;48.150;17.142;2023-02-14T16:46:10;16.63;;;9.60;;
12308;SDS011;6217;48.150;17.142;2023-02-14T16:50:22;16.75;;;10.18;;
12308;SDS011;6217;48.150;17.142;2023-02-14T16:54:27;15.82;;;9.57;;
12308;SDS011;6217;48.150;17.142;2023-02-14T16:58:33;21.52;;;10.02;;
12308;SDS011;6217;48.150;17.142;2023-02-14T17:02:41;17.85;;;10.55;;
12308;SDS011;6217;48.150;17.142;2023-02-14T17:06:48;16.13;;;10.63;;
12308;SDS011;6217;48.150;17.142;2023-02-14T17:10:57;17.40;;;9.03;;
12308;SDS011;6217;48.150;17.142;2023-02-14T17:15:07;15.73;;;9.73;;
12308;SDS011;6217;48.150;17.142;2023-02-14T17:19:18;17.02;;;10.23;;
12308;SDS011;6217;48.150;17.142;2023-02-14T17:23:25;17.75;;;9.98;;
12308;SDS011;6217;48.150;17.142;2023-02-14T17:27:31;16.35;;;8.65;;
12308;SDS011;6217;48.150;17.142;2023-02-14T17:31:37;12.90;;;8.25;;
12308;SDS011;6217;48.150;17.142;2023-02-14T17:35:43;11.70;;;7.38;;
12308;SDS011;6217;48.150;17.142;2023-02-14T17:39:51;13.30;;;6.95;;
12308;SDS011;6217;48.150;17.142;2023-02-14T17:43:57;9.48;;;6.13;;
12308;SDS011;6217;48.150;17.142;2023-02-14T17:48:06;13.23;;;5.75;;
12308;SDS011;6217;48.150;17.142;2023-02-14T17:52:12;9.75;;;6.63;;
12308;SDS011;6217;48.150;17.142;2023-02-14T17:56:20;14.23;;;7.05;;
12308;SDS011;6217;48.150;17.142;2023-02-14T18:00:29;9.05;;;4.60;;
12308;SDS011;6217;48.150;17.142;2023-02-14T18:04:34;9.52;;;5.47;;
12308;SDS011;6217;48.150;17.142;2023-02-14T18:08:42;7.22;;;5.43;;
12308;SDS011;6217;48.150;17.142;2023-02-14T18:12:52;8.53;;;5.27;;
12308;SDS011;6217;48.150;17.142;2023-02-14T18:16:58;7.13;;;4.13;;
12308;SDS011;6217;48.150;17.142;2023-02-14T18:21:05;8.68;;;4.30;;
12308;SDS011;6217;48.150;17.142;2023-02-14T18:25:14;8.07;;;4.65;;
12308;SDS011;6217;48.150;17.142;2023-02-14T18:29:20;5.68;;;4.20;;
12308;SDS011;6217;48.150;17.142;2023-02-14T18:33:26;6.65;;;3.50;;
12308;SDS011;6217;48.150;17.142;2023-02-14T18:37:32;8.13;;;3.20;;
12308;SDS011;6217;48.150;17.142;2023-02-14T18:41:38;10.45;;;4.10;;
12308;SDS011;6217;48.150;17.142;2023-02-14T18:45:44;8.23;;;4.60;;
12308;SDS011;6217;48.150;17.142;2023-02-14T18:49:50;9.27;;;4.63;;
12308;SDS011;6217;48.150;17.142;2023-02-14T18:53:57;6.05;;;3.92;;
12308;SDS011;6217;48.150;17.142;2023-02-14T18:58:05;6.47;;;4.35;;
12308;SDS011;6217;48.150;17.142;2023-02-14T19:02:11;7.43;;;4.50;;
12308;SDS011;6217;48.150;17.142;2023-02-14T19:06:18;7.80;;;4.97;;
12308;SDS011;6217;48.150;17.142;2023-02-14T19:10:25;11.90;;;5.65;;
12308;SDS011;6217;48.150;17.142;2023-02-14T19:14:31;7.35;;;4.07;;
12308;SDS011;6217;48.150;17.142;2023-02-14T19:18:37;8.23;;;3.92;;
12308;SDS011;6217;48.150;17.142;2023-02-14T19:22:44;6.55;;;4.40;;
12308;SDS011;6217;48.150;17.142;2023-02-14T19:26:50;9.48;;;4.35;;
12308;SDS011;6217;48.150;17.142;2023-02-14T19:30:57;7.13;;;4.38;;
12308;SDS011;6217;48.150;17.142;2023-02-14T19:35:03;7.72;;;4.38;;
12308;SDS011;6217;48.150;17.142;2023-02-14T19:39:10;6.45;;;4.47;;
12308;SDS011;6217;48.150;17.142;2023-02-14T19:43:17;8.55;;;4.93;;
12308;SDS011;6217;48.150;17.142;2023-02-14T19:47:23;13.98;;;5.05;;
12308;SDS011;6217;48.150;17.142;2023-02-14T19:51:30;7.57;;;5.03;;
12308;SDS011;6217;48.150;17.142;2023-02-14T19:55:38;7.35;;;5.32;;
12308;SDS011;6217;48.150;17.142;2023-02-14T19:59:44;6.13;;;4.60;;
12308;SDS011;6217;48.150;17.142;2023-02-14T20:03:50;10.82;;;4.68;;
12308;SDS011;6217;48.150;17.142;2023-02-14T20:07:57;6.68;;;4.60;;
12308;SDS011;6217;48.150;17.142;2023-02-14T20:12:03;8.60;;;5.15;;
12308;SDS011;6217;48.150;17.142;2023-02-14T20:16:10;7.18;;;4.40;;
12308;SDS011;6217;48.150;17.142;2023-02-14T20:20:15;8.90;;;5.82;;
12308;SDS011;6217;48.150;17.142;2023-02-14T20:24:23;6.88;;;5.30;;
12308;SDS011;6217;48.150;17.142;2023-02-14T20:28:32;11.25;;;6.13;;
12308;SDS011;6217;48.150;17.142;2023-02-14T20:32:38;12.57;;;6.30;;
12308;SDS011;6217;48.150;17.142;2023-02-14T20:36:47;8.57;;;5.38;;
12308;SDS011;6217;48.150;17.142;2023-02-14T20:40:57;9.00;;;5.28;;
12308;SDS011;6217;48.150;17.142;2023-02-14T20:45:10;9.43;;;5.35;;
12308;SDS011;6217;48.150;17.142;2023-02-14T20:49:16;10.15;;;6.22;;
12308;SDS011;6217;48.150;17.142;2023-02-14T20:53:23;10.65;;;6.50;;
12308;SDS011;6217;48.150;17.142;2023-02-14T20:57:30;9.88;;;5.97;;
12308;SDS011;6217;48.150;17.142;2023-02-14T21:01:35;8.98;;;5.68;;
12308;SDS011;6217;48.150;17.142;2023-02-14T21:05:42;7.68;;;5.90;;
12308;SDS011;6217;48.150;17.142;2023-02-14T21:09:52;12.40;;;7.18;;
12308;SDS011;6217;48.150;17.142;2023-02-14T21:13:58;8.80;;;6.28;;
12308;SDS011;6217;48.150;17.142;2023-02-14T21:18:05;8.68;;;6.20;;
12308;SDS011;6217;48.150;17.142;2023-02-14T21:22:11;10.10;;;6.07;;
12308;SDS011;6217;48.150;17.142;2023-02-14T21:26:17;11.10;;;6.38;;
12308;SDS011;6217;48.150;17.142;2023-02-14T21:30:24;13.75;;;7.38;;
12308;SDS011;6217;48.150;17.142;2023-02-14T21:34:34;11.00;;;7.07;;
12308;SDS011;6217;48.150;17.142;2023-02-14T21:38:40;13.30;;;7.57;;
12308;SDS011;6217;48.150;17.142;2023-02-14T21:42:47;11.15;;;7.32;;
12308;SDS011;6217;48.150;17.142;2023-02-14T21:46:52;13.25;;;9.20;;
12308;SDS011;6217;48.150;17.142;2023-02-14T21:50:58;15.32;;;9.55;;
12308;SDS011;6217;48.150;17.142;2023-02-14T21:55:09;13.38;;;8.43;;
12308;SDS011;6217;48.150;17.142;2023-02-14T21:59:15;14.05;;;8.85;;
12308;SDS011;6217;48.150;17.142;2023-02-14T22:03:21;15.13;;;9.50;;
12308;SDS011;6217;48.150;17.142;2023-02-14T22:07:27;9.35;;;8.00;;
12308;SDS011;6217;48.150;17.142;2023-02-14T22:11:33;12.38;;;8.98;;
12308;SDS011;6217;48.150;17.142;2023-02-14T22:15:39;15.07;;;9.98;;
12308;SDS011;6217;48.150;17.142;2023-02-14T22:19:48;10.65;;;8.52;;
12308;SDS011;6217;48.150;17.142;2023-02-14T22:23:54;15.07;;;9.52;;
12308;SDS011;6217;48.150;17.142;2023-02-14T22:28:00;14.52;;;9.77;;
12308;SDS011;6217;48.150;17.142;2023-02-14T22:32:06;16.23;;;9.98;;
12308;SDS011;6217;48.150;17.142;2023-02-14T22:36:12;14.43;;;10.40;;
12308;SDS011;6217;48.150;17.142;2023-02-14T22:40:21;19.10;;;10.23;;
12308;SDS011;6217;48.150;17.142;2023-02-14T22:44:27;16.80;;;11.48;;
12308;SDS011;6217;48.150;17.142;2023-02-14T22:48:34;21.50;;;11.93;;
12308;SDS011;6217;48.150;17.142;2023-02-14T22:52:41;19.40;;;12.07;;
12308;SDS011;6217;48.150;17.142;2023-02-14T22:56:47;19.52;;;10.35;;
12308;SDS011;6217;48.150;17.142;2023-02-14T23:00:55;24.67;;;12.93;;
12308;SDS011;6217;48.150;17.142;2023-02-14T23:05:01;20.35;;;10.73;;
12308;SDS011;6217;48.150;17.142;2023-02-14T23:09:07;22.15;;;11.45;;
12308;SDS011;6217;48.150;17.142;2023-02-14T23:13:18;20.27;;;11.73;;
12308;SDS011;6217;48.150;17.142;2023-02-14T23:17:42;20.95;;;12.13;;
12308;SDS011;6217;48.150;17.142;2023-02-14T23:22:17;19.10;;;11.93;;
12308;SDS011;6217;48.150;17.142;2023-02-14T23:26:33;22.27;;;13.73;;
12308;SDS011;6217;48.150;17.142;2023-02-14T23:30:42;17.90;;;11.18;;
12308;SDS011;6217;48.150;17.142;2023-02-14T23:34:48;18.13;;;11.80;;
12308;SDS011;6217;48.150;17.142;2023-02-14T23:39:00;23.75;;;11.32;;
12308;SDS011;6217;48.150;17.142;2023-02-14T23:43:06;20.38;;;10.65;;
12308;SDS011;6217;48.150;17.142;2023-02-14T23:47:12;16.38;;;11.60;;
12308;SDS011;6217;48.150;17.142;2023-02-14T23:51:20;15.60;;;10.57;;
12308;SDS011;6217;48.150;17.142;2023-02-14T23:55:26;25.77;;;11.52;;
12308;SDS011;6217;48.150;17.142;2023-02-14T23:59:32;16.10;;;11.27;;
